Time;durP1;ratioP1;P1;durP2;ratioP2;P2;SDS_P1;SDS_P2;PMS_P1;PMS_P2;Temp;Humidity;BMP_temperature;BMP_pressure;BME280_temperature;BME280_humidity;BME280_pressure;Samples;Min_cycle;Max_cycle;Signal;HPM_P1;HPM_P2
2022/10/07 00:00:21;;;;;;;7.07;1.50;;;9.90;99.90;;;;;;6213786;23;20449;-87
2022/10/07 00:02:47;;;;;;;8.00;1.83;;;9.90;99.90;;;;;;6239531;23;20016;-87
2022/10/07 00:05:13;;;;;;;10.98;2.33;;;9.90;99.90;;;;;;6239616;23;20021;-87
2022/10/07 00:07:38;;;;;;;7.07;1.55;;;9.80;99.90;;;;;;6239233;23;20345;-87
2022/10/07 00:10:04;;;;;;;11.15;1.80;;;9.90;99.90;;;;;;6240751;23;20019;-87
2022/10/07 00:12:30;;;;;;;9.60;1.42;;;9.80;99.90;;;;;;6238949;23;20016;-87
2022/10/07 00:14:55;;;;;;;7.80;1.40;;;9.70;99.90;;;;;;6241205;23;20039;-87
2022/10/07 00:17:21;;;;;;;7.97;2.10;;;9.70;99.90;;;;;;6239357;23;20028;-87
2022/10/07 00:19:47;;;;;;;11.98;2.22;;;9.70;99.90;;;;;;6241384;23;20337;-87
2022/10/07 00:22:13;;;;;;;10.13;1.85;;;9.60;99.90;;;;;;6240560;23;20016;-87
2022/10/07 00:24:39;;;;;;;6.97;1.83;;;9.60;99.90;;;;;;6239014;23;20019;-86
2022/10/07 00:27:04;;;;;;;10.60;2.10;;;9.60;99.90;;;;;;6239260;23;20012;-87
2022/10/07 00:29:30;;;;;;;7.22;1.92;;;9.60;99.90;;;;;;6214099;23;20009;-87
2022/10/07 00:31:56;;;;;;;9.35;2.10;;;9.50;99.90;;;;;;6241063;23;20455;-86
2022/10/07 00:34:21;;;;;;;9.02;2.25;;;9.50;99.90;;;;;;6213715;23;20368;-87
2022/10/07 00:36:49;;;;;;;7.65;2.08;;;9.50;99.90;;;;;;6241159;23;20099;-87
2022/10/07 00:39:15;;;;;;;9.70;2.15;;;9.50;99.90;;;;;;6238277;23;20345;-87
2022/10/07 00:41:43;;;;;;;7.40;2.20;;;9.40;99.90;;;;;;6242417;22;20008;-87
2022/10/07 00:44:46;;;;;;;10.65;2.50;;;9.40;99.90;;;;;;6241302;23;20018;-87
2022/10/07 00:47:13;;;;;;;6.95;2.20;;;9.40;99.90;;;;;;6095738;23;20489;-86
2022/10/07 00:49:45;;;;;;;6.32;1.88;;;9.40;99.90;;;;;;6095724;23;20017;-87
2022/10/07 00:52:13;;;;;;;13.07;2.63;;;9.30;99.90;;;;;;6095562;23;20049;-87
2022/10/07 00:54:39;;;;;;;12.45;2.70;;;9.30;99.90;;;;;;6119998;23;20505;-87
2022/10/07 00:57:05;;;;;;;10.52;2.58;;;9.30;99.90;;;;;;6096200;23;20129;-86
2022/10/07 00:59:32;;;;;;;8.52;2.47;;;9.30;99.90;;;;;;6095590;23;20018;-87
2022/10/07 01:01:57;;;;;;;7.97;2.30;;;9.20;99.90;;;;;;6071250;23;20037;-88
2022/10/07 01:04:23;;;;;;;9.50;3.08;;;9.20;99.90;;;;;;6095783;23;20018;-86
2022/10/07 01:06:49;;;;;;;15.05;2.90;;;9.20;99.90;;;;;;6118705;23;20017;-87
2022/10/07 01:09:14;;;;;;;7.30;2.42;;;9.20;99.90;;;;;;6120835;23;20037;-86
2022/10/07 01:12:15;;;;;;;7.72;2.28;;;9.20;99.90;;;;;;6072215;23;20097;-86
2022/10/07 01:14:46;;;;;;;13.18;3.00;;;9.10;99.90;;;;;;6095334;23;20054;-86
2022/10/07 01:17:30;;;;;;;12.80;2.95;;;9.10;99.90;;;;;;6096284;23;20021;-86
2022/10/07 01:20:19;;;;;;;8.05;2.70;;;9.10;99.90;;;;;;6120124;23;20014;-86
2022/10/07 01:23:00;;;;;;;10.07;2.83;;;9.10;99.90;;;;;;6242504;23;20043;-86
2022/10/07 01:25:40;;;;;;;11.93;3.03;;;9.10;99.90;;;;;;6242673;22;20023;-87
2022/10/07 01:28:14;;;;;;;7.50;2.65;;;9.10;99.90;;;;;;6216036;23;20012;-88
2022/10/07 01:30:45;;;;;;;11.02;3.15;;;9.00;99.90;;;;;;6215586;23;20122;-87
2022/10/07 01:33:18;;;;;;;11.75;3.53;;;9.00;99.90;;;;;;6215877;23;20016;-87
2022/10/07 01:35:47;;;;;;;9.93;2.83;;;9.00;99.90;;;;;;6214560;23;20349;-88
2022/10/07 01:38:17;;;;;;;9.15;3.20;;;9.00;99.90;;;;;;6215611;23;20026;-87
2022/10/07 01:40:53;;;;;;;11.00;3.00;;;9.00;99.90;;;;;;6240667;23;20012;-87
2022/10/07 01:43:20;;;;;;;11.73;2.50;;;9.00;99.90;;;;;;6241868;22;20341;-87
2022/10/07 01:45:47;;;;;;;11.35;2.70;;;9.00;99.90;;;;;;6239862;23;20111;-87
2022/10/07 01:48:14;;;;;;;9.43;3.10;;;8.90;99.90;;;;;;6242672;22;20019;-87
2022/10/07 01:50:40;;;;;;;8.15;3.05;;;8.90;99.90;;;;;;6239913;23;20054;-87
2022/10/07 01:53:39;;;;;;;10.38;3.10;;;8.90;99.90;;;;;;6242118;22;20450;-87
2022/10/07 01:56:24;;;;;;;11.35;3.55;;;8.90;99.90;;;;;;6240375;23;20479;-87
2022/10/07 01:59:08;;;;;;;;;;;8.80;99.90;;;;;;6242588;22;20012;-87
2022/10/07 02:02:03;;;;;;;12.75;2.95;;;8.90;99.90;;;;;;6215376;23;19916;-87
2022/10/07 02:04:46;;;;;;;11.55;3.25;;;8.90;99.90;;;;;;6240759;23;20054;-87
2022/10/07 02:07:32;;;;;;;8.73;3.35;;;8.80;99.90;;;;;;6241106;23;20366;-87
2022/10/07 02:10:08;;;;;;;11.82;3.45;;;8.80;99.90;;;;;;6242060;23;20638;-87
2022/10/07 02:12:53;;;;;;;12.43;3.15;;;8.80;99.90;;;;;;6242601;23;20092;-87
2022/10/07 02:15:26;;;;;;;13.90;3.38;;;8.80;99.90;;;;;;6242636;23;20408;-86
2022/10/07 02:17:56;;;;;;;12.45;3.40;;;8.80;99.90;;;;;;6241929;22;20054;-87
2022/10/07 02:20:27;;;;;;;10.45;3.63;;;8.80;99.90;;;;;;6241597;22;20070;-87
2022/10/07 02:22:56;;;;;;;11.93;3.67;;;8.80;99.90;;;;;;6240163;23;20016;-87
2022/10/07 02:25:24;;;;;;;12.38;3.55;;;8.80;99.90;;;;;;6240435;23;20498;-87
2022/10/07 02:27:53;;;;;;;13.73;3.78;;;8.80;99.90;;;;;;6242447;22;20066;-87
2022/10/07 02:30:20;;;;;;;12.40;3.90;;;8.80;99.90;;;;;;6240917;23;20012;-88
2022/10/07 02:32:52;;;;;;;10.68;3.47;;;8.70;99.90;;;;;;6242468;22;20020;-87
2022/10/07 02:35:30;;;;;;;11.75;3.50;;;8.70;99.90;;;;;;6239901;23;20012;-87
2022/10/07 02:37:59;;;;;;;9.35;3.30;;;8.70;99.90;;;;;;6241517;22;20087;-87
2022/10/07 02:41:04;;;;;;;9.45;3.03;;;8.70;99.90;;;;;;6242245;22;20048;-87
2022/10/07 02:43:55;;;;;;;9.82;3.58;;;8.70;99.90;;;;;;6118831;23;20033;-86
2022/10/07 02:46:37;;;;;;;11.70;3.35;;;8.70;99.90;;;;;;6095044;23;20017;-87
2022/10/07 02:49:07;;;;;;;9.73;3.28;;;8.60;99.90;;;;;;6094234;23;20096;-87
2022/10/07 02:52:04;;;;;;;8.85;3.90;;;8.60;99.90;;;;;;6094498;23;20453;-87
2022/10/07 02:54:33;;;;;;;10.25;3.33;;;8.60;99.90;;;;;;6062072;23;20018;-87
2022/10/07 02:57:00;;;;;;;15.52;3.65;;;8.60;99.90;;;;;;6094817;23;20022;-87
2022/10/07 02:59:27;;;;;;;12.55;3.60;;;8.60;99.90;;;;;;6070690;23;20583;-87
2022/10/07 03:01:55;;;;;;;11.43;3.53;;;8.60;99.90;;;;;;6118649;23;20499;-87
2022/10/07 03:04:22;;;;;;;13.93;4.30;;;8.50;99.90;;;;;;6093553;23;20309;-87
2022/10/07 03:06:48;;;;;;;11.07;3.15;;;8.50;99.90;;;;;;6118227;23;20014;-87
2022/10/07 03:09:14;;;;;;;12.40;3.58;;;8.50;99.90;;;;;;6093963;23;20093;-87
2022/10/07 03:11:40;;;;;;;11.93;3.70;;;8.50;99.90;;;;;;6094626;23;20056;-87
2022/10/07 03:14:05;;;;;;;10.98;3.25;;;8.50;99.90;;;;;;6070347;23;20137;-86
2022/10/07 03:16:31;;;;;;;16.05;4.03;;;8.50;99.90;;;;;;6119079;23;20014;-87
2022/10/07 03:19:00;;;;;;;15.18;3.85;;;8.50;99.90;;;;;;6109319;23;20092;-87
2022/10/07 03:21:25;;;;;;;12.77;3.63;;;8.50;99.90;;;;;;6240674;23;20066;-87
2022/10/07 03:23:52;;;;;;;12.82;3.92;;;8.50;99.90;;;;;;6242189;22;20020;-87
2022/10/07 03:26:18;;;;;;;13.95;3.83;;;8.40;99.90;;;;;;6240471;23;20087;-87
2022/10/07 03:28:44;;;;;;;15.30;3.97;;;8.40;99.90;;;;;;6215309;23;20039;-87
2022/10/07 03:31:13;;;;;;;14.13;4.00;;;8.40;99.90;;;;;;6240769;23;20070;-87
2022/10/07 03:33:38;;;;;;;9.05;3.60;;;8.40;99.90;;;;;;6241828;22;20024;-87
2022/10/07 03:36:06;;;;;;;8.35;3.50;;;8.40;99.90;;;;;;6240622;23;20027;-87
2022/10/07 03:38:32;;;;;;;10.70;3.53;;;8.40;99.90;;;;;;6214818;23;20020;-86
2022/10/07 03:41:00;;;;;;;18.52;3.55;;;8.40;99.90;;;;;;6240975;23;20274;-86
2022/10/07 03:43:26;;;;;;;16.08;3.88;;;8.40;99.90;;;;;;6242517;22;20012;-87
2022/10/07 03:45:52;;;;;;;13.88;3.90;;;8.40;99.90;;;;;;6241808;22;20022;-87
2022/10/07 03:48:18;;;;;;;12.20;3.25;;;8.40;99.90;;;;;;6242012;23;20043;-87
2022/10/07 03:50:51;;;;;;;12.05;4.15;;;8.40;99.90;;;;;;6240257;23;20342;-87
2022/10/07 03:53:17;;;;;;;13.27;4.00;;;8.40;99.90;;;;;;6242301;22;20403;-87
2022/10/07 03:55:44;;;;;;;15.23;3.72;;;8.40;99.90;;;;;;6242145;22;20352;-87
2022/10/07 03:58:11;;;;;;;16.20;5.38;;;8.40;99.90;;;;;;6242256;22;20031;-87
2022/10/07 04:00:39;;;;;;;17.20;3.92;;;8.40;99.90;;;;;;6215523;23;20012;-87
2022/10/07 04:03:06;;;;;;;10.35;4.07;;;8.30;99.90;;;;;;6215277;23;20048;-87
2022/10/07 04:05:33;;;;;;;10.90;3.65;;;8.30;99.90;;;;;;6241892;22;20488;-86
2022/10/07 04:07:58;;;;;;;13.18;3.80;;;8.30;99.90;;;;;;6240331;23;20012;-86
2022/10/07 04:10:24;;;;;;;12.32;3.72;;;8.30;99.90;;;;;;6240784;23;20550;-87
2022/10/07 04:12:51;;;;;;;12.10;3.97;;;8.30;99.90;;;;;;6240552;23;20341;-86
2022/10/07 04:15:17;;;;;;;14.93;4.45;;;8.30;99.90;;;;;;6241388;23;20016;-87
2022/10/07 04:17:45;;;;;;;12.63;3.50;;;8.30;99.90;;;;;;6244307;22;20027;-87
2022/10/07 04:20:12;;;;;;;17.60;4.50;;;8.30;99.90;;;;;;6244015;22;20044;-87
2022/10/07 04:22:38;;;;;;;13.48;4.13;;;8.30;99.90;;;;;;6242954;23;20012;-87
2022/10/07 04:27:57;;;;;;;17.33;4.45;;;8.30;99.90;;;;;;6244161;23;20016;-86
2022/10/07 04:30:24;;;;;;;10.80;3.80;;;8.60;99.90;;;;;;6241744;23;20437;-87
2022/10/07 04:32:50;;;;;;;10.88;3.50;;;8.30;99.90;;;;;;6216794;23;20012;-86
2022/10/07 04:35:21;;;;;;;16.05;3.92;;;8.30;99.90;;;;;;6244353;22;20023;-87
2022/10/07 04:37:48;;;;;;;18.58;4.15;;;8.30;99.90;;;;;;6244268;22;20016;-87
2022/10/07 04:40:14;;;;;;;13.77;3.95;;;8.30;99.90;;;;;;6216433;23;20445;-87
2022/10/07 04:45:23;;;;;;;14.90;4.47;;;8.30;99.90;;;;;;6241701;23;20500;-87
2022/10/07 04:47:49;;;;;;;13.30;4.75;;;8.30;99.90;;;;;;6241706;23;20235;-87
2022/10/07 04:50:15;;;;;;;12.70;3.88;;;8.30;99.90;;;;;;6242088;23;20289;-87
2022/10/07 04:52:44;;;;;;;12.85;4.20;;;8.40;99.90;;;;;;6241866;23;20020;-87
2022/10/07 04:55:11;;;;;;;14.93;4.80;;;8.40;99.90;;;;;;6217171;23;20384;-87
2022/10/07 04:57:37;;;;;;;11.98;4.10;;;8.40;99.90;;;;;;6242946;23;20058;-86
2022/10/07 05:00:04;;;;;;;20.70;5.13;;;8.40;99.90;;;;;;6241777;23;20449;-87
2022/10/07 05:02:29;;;;;;;17.00;4.25;;;8.40;99.90;;;;;;6243736;23;20091;-86
2022/10/07 05:04:55;;;;;;;11.68;3.80;;;8.40;99.90;;;;;;6242250;23;20043;-87
2022/10/07 05:07:21;;;;;;;19.02;5.03;;;8.40;99.90;;;;;;6245425;23;20008;-87
2022/10/07 05:09:46;;;;;;;14.27;3.78;;;8.40;99.90;;;;;;6242041;23;20015;-87
2022/10/07 05:12:12;;;;;;;13.93;3.67;;;8.40;99.90;;;;;;6244208;23;20047;-87
2022/10/07 05:14:40;;;;;;;16.45;4.90;;;8.40;99.90;;;;;;6243894;23;20024;-86
2022/10/07 05:17:06;;;;;;;14.68;4.20;;;8.40;99.90;;;;;;6244530;22;20066;-87
2022/10/07 05:19:32;;;;;;;14.80;4.43;;;8.80;99.90;;;;;;6243972;23;20016;-86
2022/10/07 05:21:58;;;;;;;18.63;4.03;;;8.40;99.90;;;;;;6242383;23;20012;-86
2022/10/07 05:24:26;;;;;;;11.98;3.67;;;8.40;99.90;;;;;;6242328;23;20270;-86
2022/10/07 05:26:51;;;;;;;16.88;4.43;;;8.40;99.90;;;;;;6241835;23;20019;-86
2022/10/07 05:29:17;;;;;;;20.77;4.50;;;8.40;99.90;;;;;;6242960;23;20342;-86
2022/10/07 05:31:43;;;;;;;14.50;4.50;;;8.40;99.90;;;;;;6244258;23;20012;-86
2022/10/07 05:34:08;;;;;;;11.50;4.43;;;8.40;99.90;;;;;;6216700;23;20330;-86
2022/10/07 05:36:34;;;;;;;13.68;4.53;;;8.40;99.90;;;;;;6244148;23;20083;-86
2022/10/07 05:39:00;;;;;;;23.95;5.07;;;8.50;99.90;;;;;;6241893;23;20016;-87
2022/10/07 05:41:29;;;;;;;16.83;4.35;;;9.00;99.90;;;;;;6245945;23;20094;-90
2022/10/07 05:43:54;;;;;;;16.70;4.47;;;8.50;99.90;;;;;;6246423;23;20068;-91
2022/10/07 05:46:21;;;;;;;20.63;5.10;;;8.50;99.90;;;;;;6247608;22;20074;-92
2022/10/07 05:48:52;;;;;;;19.13;4.47;;;8.50;99.90;;;;;;6248718;23;20044;-91
2022/10/07 05:51:19;;;;;;;16.40;4.40;;;8.50;99.90;;;;;;6247514;22;20516;-90
2022/10/07 05:53:45;;;;;;;16.20;4.47;;;8.50;99.90;;;;;;6245419;22;20012;-89
2022/10/07 05:56:15;;;;;;;18.60;4.90;;;8.50;99.90;;;;;;6244738;23;20020;-88
2022/10/07 05:58:41;;;;;;;16.38;4.72;;;8.90;99.90;;;;;;6243176;23;20023;-89
2022/10/07 06:01:13;;;;;;;18.80;4.65;;;8.60;99.90;;;;;;6217364;23;20009;-86
2022/10/07 06:03:38;;;;;;;12.63;4.70;;;8.60;99.90;;;;;;6242183;22;20499;-85
2022/10/07 06:06:04;;;;;;;16.10;4.10;;;8.60;99.90;;;;;;6240082;23;20016;-85
2022/10/07 06:08:30;;;;;;;15.70;5.03;;;8.70;99.90;;;;;;6240856;23;20012;-85
2022/10/07 06:13:49;;;;;;;24.60;5.35;;;8.80;99.90;;;;;;6249363;23;20020;-95
2022/10/07 06:16:15;;;;;;;22.10;4.55;;;8.80;99.90;;;;;;6241086;23;20020;-84
2022/10/07 06:18:41;;;;;;;18.67;4.85;;;8.80;99.90;;;;;;6241365;23;20336;-84
2022/10/07 06:21:07;;;;;;;13.63;5.65;;;8.90;99.90;;;;;;6240983;23;20020;-85
2022/10/07 06:23:33;;;;;;;14.98;4.80;;;9.00;99.90;;;;;;6214979;23;20048;-86
2022/10/07 06:26:02;;;;;;;15.98;4.93;;;9.10;99.90;;;;;;6241021;22;20303;-88
2022/10/07 06:28:32;;;;;;;19.15;4.40;;;9.10;99.90;;;;;;6241559;23;20310;-85
2022/10/07 06:30:58;;;;;;;17.73;4.47;;;9.20;99.90;;;;;;6241684;23;20012;-83
2022/10/07 06:33:24;;;;;;;17.02;5.03;;;9.30;99.90;;;;;;6241226;23;20023;-84
2022/10/07 06:35:55;;;;;;;20.45;5.03;;;9.30;99.90;;;;;;6241007;23;20715;-84
2022/10/07 06:38:21;;;;;;;16.83;4.70;;;9.30;99.90;;;;;;6240903;23;20012;-84
2022/10/07 06:41:07;;;;;;;21.20;5.45;;;9.40;99.90;;;;;;6240582;23;20438;-84
2022/10/07 06:43:34;;;;;;;17.02;5.47;;;9.50;99.90;;;;;;6241417;23;20169;-84
2022/10/07 06:46:02;;;;;;;22.90;4.65;;;9.50;99.90;;;;;;6241214;23;20551;-86
2022/10/07 06:48:29;;;;;;;18.00;5.28;;;9.50;99.90;;;;;;6240962;23;20023;-84
2022/10/07 06:51:02;;;;;;;17.65;4.40;;;9.60;99.90;;;;;;6242171;23;20054;-84
2022/10/07 06:53:28;;;;;;;25.77;4.45;;;9.60;99.90;;;;;;6243476;22;20086;-84
2022/10/07 06:55:56;;;;;;;17.65;4.78;;;9.60;99.90;;;;;;6241021;22;20020;-84
2022/10/07 06:58:23;;;;;;;20.65;4.35;;;9.70;99.90;;;;;;6241778;23;20023;-84
2022/10/07 07:00:49;;;;;;;14.00;4.85;;;9.70;99.90;;;;;;6216523;23;20046;-84
2022/10/07 07:03:16;;;;;;;16.63;5.20;;;9.80;99.90;;;;;;6242926;22;20361;-84
2022/10/07 07:05:42;;;;;;;19.17;4.70;;;9.80;99.90;;;;;;6243047;22;20012;-84
2022/10/07 07:08:08;;;;;;;16.75;5.05;;;9.90;99.90;;;;;;6243023;22;20311;-84
2022/10/07 07:10:38;;;;;;;21.75;5.10;;;9.90;99.90;;;;;;6215260;23;20069;-84
2022/10/07 07:13:06;;;;;;;19.77;4.72;;;9.90;99.90;;;;;;6242977;22;20051;-83
2022/10/07 07:15:32;;;;;;;14.93;4.63;;;10.00;99.90;;;;;;6241661;22;20012;-84
2022/10/07 07:17:58;;;;;;;19.25;4.53;;;10.00;99.90;;;;;;6242293;23;20016;-84
2022/10/07 07:20:24;;;;;;;21.98;4.53;;;10.10;99.90;;;;;;6241537;23;20038;-84
2022/10/07 07:22:51;;;;;;;14.68;4.75;;;10.10;99.90;;;;;;6240268;23;20138;-82
2022/10/07 07:25:18;;;;;;;16.30;4.15;;;10.20;99.90;;;;;;6215797;23;20442;-84
2022/10/07 07:27:46;;;;;;;14.43;4.18;;;10.20;99.90;;;;;;6242321;22;20480;-84
2022/10/07 07:30:12;;;;;;;23.77;4.30;;;10.20;99.90;;;;;;6216110;23;20016;-84
2022/10/07 07:32:38;;;;;;;17.50;4.45;;;10.30;99.90;;;;;;6242862;23;20345;-84
2022/10/07 07:35:30;;;;;;;18.98;3.90;;;10.30;99.90;;;;;;6240481;23;20020;-82
2022/10/07 07:37:56;;;;;;;20.08;4.03;;;10.40;99.90;;;;;;6242193;22;20039;-82
2022/10/07 07:40:22;;;;;;;17.65;4.50;;;10.40;99.90;;;;;;6242437;23;20019;-82
2022/10/07 07:42:48;;;;;;;13.60;3.75;;;10.50;99.90;;;;;;6242405;23;20062;-83
2022/10/07 07:45:14;;;;;;;15.48;3.53;;;10.50;99.90;;;;;;6241046;23;20020;-83
2022/10/07 07:47:40;;;;;;;15.25;3.55;;;10.60;99.90;;;;;;6242710;22;20019;-82
2022/10/07 07:50:07;;;;;;;12.48;3.70;;;10.70;99.90;;;;;;6242297;22;20464;-83
2022/10/07 07:52:34;;;;;;;18.98;3.95;;;10.70;99.90;;;;;;6240539;23;20154;-83
2022/10/07 07:55:01;;;;;;;18.45;3.67;;;10.70;99.90;;;;;;6213740;23;20504;-83
2022/10/07 07:57:27;;;;;;;19.45;3.42;;;10.80;99.90;;;;;;6240332;23;20016;-82
2022/10/07 07:59:54;;;;;;;12.27;3.78;;;10.90;99.90;;;;;;6240580;23;20092;-83
2022/10/07 08:02:20;;;;;;;14.65;3.65;;;10.90;99.90;;;;;;6216410;23;20087;-83
2022/10/07 08:04:46;;;;;;;16.83;3.80;;;11.40;99.90;;;;;;6240982;23;20011;-84
2022/10/07 08:07:12;;;;;;;14.55;3.28;;;11.00;99.90;;;;;;6239401;23;20091;-83
2022/10/07 08:09:38;;;;;;;10.20;3.45;;;11.20;99.90;;;;;;6241254;23;20092;-83
2022/10/07 08:12:04;;;;;;;14.55;3.35;;;11.10;99.90;;;;;;6242775;22;20028;-84
2022/10/07 08:14:30;;;;;;;15.27;4.40;;;11.20;99.90;;;;;;6241435;23;20018;-83
2022/10/07 08:16:58;;;;;;;13.65;3.13;;;11.30;99.90;;;;;;6239946;23;20487;-83
2022/10/07 08:19:25;;;;;;;13.48;3.60;;;11.50;99.90;;;;;;6242459;22;20016;-83
2022/10/07 08:21:51;;;;;;;18.83;3.60;;;11.50;99.90;;;;;;6242005;22;20019;-83
2022/10/07 08:24:17;;;;;;;16.10;3.25;;;11.60;99.90;;;;;;6243000;23;20062;-83
2022/10/07 08:26:43;;;;;;;16.73;3.78;;;11.80;99.90;;;;;;6242432;22;20009;-84
2022/10/07 08:29:09;;;;;;;12.85;3.42;;;11.60;99.90;;;;;;6240543;23;20416;-83
2022/10/07 08:31:35;;;;;;;17.45;3.72;;;11.60;99.90;;;;;;6242503;23;20441;-83
2022/10/07 08:34:02;;;;;;;14.05;2.95;;;11.70;99.90;;;;;;6240461;23;20087;-83
2022/10/07 08:36:31;;;;;;;10.75;3.28;;;11.70;99.90;;;;;;6239769;23;20020;-83
2022/10/07 08:38:58;;;;;;;14.35;2.65;;;11.70;99.90;;;;;;6240502;23;20039;-83
2022/10/07 08:41:35;;;;;;;16.25;3.28;;;11.90;99.90;;;;;;6239642;23;20016;-83
2022/10/07 08:44:16;;;;;;;15.50;3.20;;;11.80;99.90;;;;;;6242663;22;20012;-83
2022/10/07 08:47:05;;;;;;;17.40;3.17;;;11.90;99.90;;;;;;6214802;23;20074;-83
2022/10/07 08:49:55;;;;;;;13.43;3.53;;;11.90;99.90;;;;;;6240272;23;20020;-85
2022/10/07 08:52:25;;;;;;;15.00;3.03;;;12.10;99.90;;;;;;6239907;23;20022;-83
2022/10/07 08:54:51;;;;;;;12.57;2.60;;;12.10;99.90;;;;;;6241912;22;20016;-83
2022/10/07 08:57:29;;;;;;;15.85;2.67;;;12.10;99.90;;;;;;6240047;23;20012;-83
2022/10/07 08:59:58;;;;;;;22.67;4.10;;;12.20;99.90;;;;;;6242795;22;20330;-82
2022/10/07 09:02:58;;;;;;;12.35;2.55;;;12.30;99.90;;;;;;6243590;22;20063;-83
2022/10/07 09:05:35;;;;;;;15.20;3.25;;;12.40;99.90;;;;;;6242229;23;20031;-83
2022/10/07 09:08:23;;;;;;;16.17;2.97;;;12.50;99.90;;;;;;6216550;23;20012;-83
2022/10/07 09:10:52;;;;;;;11.68;2.50;;;12.70;99.90;;;;;;6216932;23;20012;-82
2022/10/07 09:13:28;;;;;;;13.48;2.95;;;12.80;99.90;;;;;;6242509;23;20016;-83
2022/10/07 09:16:03;;;;;;;11.85;2.95;;;12.90;99.90;;;;;;6242566;23;20464;-83
2022/10/07 09:18:49;;;;;;;12.27;2.55;;;13.10;99.90;;;;;;6216215;23;20012;-84
2022/10/07 09:21:24;;;;;;;14.07;2.80;;;13.30;99.90;;;;;;6243545;22;20048;-84
2022/10/07 09:23:55;;;;;;;16.38;2.88;;;13.50;99.90;;;;;;6243794;22;20489;-84
2022/10/07 09:26:21;;;;;;;17.13;3.67;;;13.70;99.90;;;;;;6243751;22;20091;-83
2022/10/07 09:28:47;;;;;;;15.45;2.70;;;13.80;99.90;;;;;;6242248;23;20059;-83
2022/10/07 09:31:14;;;;;;;13.45;2.92;;;13.90;99.90;;;;;;6242509;23;20016;-83
2022/10/07 09:33:45;;;;;;;13.60;3.00;;;14.10;99.90;;;;;;6244022;22;20514;-84
2022/10/07 09:36:17;;;;;;;16.80;2.97;;;14.20;99.90;;;;;;6243655;22;20035;-82
2022/10/07 09:38:45;;;;;;;14.40;2.92;;;14.70;99.90;;;;;;6244015;22;20065;-84
2022/10/07 09:41:23;;;;;;;14.88;3.08;;;14.50;99.90;;;;;;6241737;23;20465;-83
2022/10/07 09:43:48;;;;;;;16.80;3.17;;;14.70;99.90;;;;;;6242180;23;20348;-83
2022/10/07 09:46:30;;;;;;;12.73;2.83;;;14.80;99.90;;;;;;6241401;23;20151;-83
2022/10/07 09:48:58;;;;;;;13.18;2.30;;;14.90;99.90;;;;;;6242075;23;20024;-84
2022/10/07 09:51:25;;;;;;;15.13;2.40;;;15.60;99.90;;;;;;6243437;22;20449;-84
2022/10/07 09:54:15;;;;;;;13.70;2.90;;;15.20;99.90;;;;;;6241905;22;20019;-83
2022/10/07 09:56:43;;;;;;;14.65;2.67;;;15.20;99.90;;;;;;6243187;22;20012;-83
2022/10/07 09:59:15;;;;;;;17.98;3.08;;;15.30;99.90;;;;;;6243562;22;20012;-83
2022/10/07 10:01:47;;;;;;;11.43;2.20;;;15.40;99.90;;;;;;6243463;23;20508;-84
2022/10/07 10:04:18;;;;;;;12.40;2.45;;;15.50;99.90;;;;;;6241377;23;20016;-84
2022/10/07 10:06:49;;;;;;;12.85;2.08;;;15.60;99.90;;;;;;6241769;23;20008;-83
2022/10/07 10:09:23;;;;;;;16.52;2.88;;;15.60;99.90;;;;;;6216610;23;20012;-83
2022/10/07 10:12:12;;;;;;;14.85;2.55;;;15.50;99.90;;;;;;6215338;23;20022;-83
2022/10/07 10:14:48;;;;;;;14.90;2.92;;;15.50;99.90;;;;;;6240990;23;20012;-84
2022/10/07 10:17:27;;;;;;;11.13;2.03;;;15.40;99.90;;;;;;6243546;22;20012;-84
2022/10/07 10:19:53;;;;;;;12.73;2.78;;;15.40;99.90;;;;;;6241517;23;20019;-83
2022/10/07 10:22:45;;;;;;;15.52;2.45;;;15.40;99.90;;;;;;6243719;22;20051;-82
2022/10/07 10:28:10;;;;;;;10.82;2.78;;;15.30;99.90;;;;;;6241740;23;20020;-83
2022/10/07 10:30:46;;;;;;;11.43;2.20;;;15.40;99.90;;;;;;6216519;23;20345;-83
2022/10/07 10:33:31;;;;;;;12.95;2.42;;;15.40;99.90;;;;;;6242503;22;20019;-83
2022/10/07 10:36:19;;;;;;;14.88;2.90;;;15.40;99.90;;;;;;6242094;23;20023;-83
2022/10/07 10:39:22;;;;;;;14.70;2.25;;;15.50;99.90;;;;;;6243066;22;20015;-83
2022/10/07 10:41:55;;;;;;;15.15;2.13;;;15.70;99.90;;;;;;6241432;23;20019;-84
2022/10/07 10:44:43;;;;;;;13.93;2.90;;;15.80;99.90;;;;;;6216028;23;20016;-83
2022/10/07 10:47:45;;;;;;;13.88;2.38;;;15.80;99.90;;;;;;6240194;23;20016;-83
2022/10/07 10:50:47;;;;;;;10.43;2.50;;;15.90;99.90;;;;;;6241572;23;20012;-82
2022/10/07 10:53:19;;;;;;;12.32;2.50;;;16.00;99.90;;;;;;6215813;23;20096;-83
2022/10/07 10:56:14;;;;;;;17.00;2.70;;;16.00;99.90;;;;;;6242714;22;20017;-82
2022/10/07 10:59:28;;;;;;;15.88;3.00;;;16.10;99.90;;;;;;6241650;23;20091;-82
2022/10/07 11:02:19;;;;;;;13.73;2.10;;;16.10;99.90;;;;;;6243167;22;20020;-82
2022/10/07 11:04:51;;;;;;;11.15;1.85;;;16.20;99.90;;;;;;6241867;23;20422;-84
2022/10/07 11:07:22;;;;;;;13.23;2.13;;;16.30;99.90;;;;;;6240281;23;20020;-83
2022/10/07 11:09:54;;;;;;;17.02;2.42;;;16.40;99.90;;;;;;6241335;23;20012;-83
2022/10/07 11:12:32;;;;;;;14.50;2.22;;;16.50;99.90;;;;;;6215959;23;20020;-83
2022/10/07 11:15:14;;;;;;;21.80;3.15;;;16.70;99.90;;;;;;6243077;22;20086;-83
2022/10/07 11:17:40;;;;;;;14.15;2.28;;;16.90;99.90;;;;;;6241089;23;20016;-83
2022/10/07 11:20:26;;;;;;;10.77;2.63;;;17.00;99.90;;;;;;6241594;23;20012;-83
2022/10/07 11:22:57;;;;;;;14.02;1.75;;;17.10;99.90;;;;;;6215638;23;20446;-83
2022/10/07 11:25:46;;;;;;;12.52;2.10;;;17.00;99.90;;;;;;6215215;23;20023;-83
2022/10/07 11:28:25;;;;;;;10.50;1.98;;;17.00;99.90;;;;;;6216323;23;20035;-83
2022/10/07 11:31:00;;;;;;;12.70;2.35;;;17.00;99.90;;;;;;6215306;23;20008;-83
2022/10/07 11:33:36;;;;;;;8.63;1.60;;;17.00;99.90;;;;;;6216008;23;20012;-83
2022/10/07 11:36:11;;;;;;;9.68;1.80;;;17.10;99.90;;;;;;6216274;23;20016;-83
2022/10/07 11:38:38;;;;;;;10.70;1.83;;;17.30;99.90;;;;;;6241820;23;20016;-83
2022/10/07 11:41:22;;;;;;;12.05;2.47;;;17.40;99.90;;;;;;6215820;23;20024;-83
2022/10/07 11:43:54;;;;;;;12.68;1.70;;;17.50;99.90;;;;;;6242640;23;20083;-83
2022/10/07 11:46:37;;;;;;;13.13;2.92;;;17.70;99.90;;;;;;6242465;22;20008;-83
2022/10/07 11:49:10;;;;;;;13.80;1.83;;;17.80;99.90;;;;;;6216022;23;20012;-84
2022/10/07 11:51:38;;;;;;;14.30;2.13;;;17.90;99.90;;;;;;6242985;22;20012;-84
2022/10/07 11:54:10;;;;;;;10.55;2.05;;;18.00;99.90;;;;;;6214769;23;20024;-83
2022/10/07 11:56:47;;;;;;;19.70;3.80;;;18.00;99.90;;;;;;6240764;23;20031;-83
2022/10/07 11:59:42;;;;;;;13.18;3.20;;;18.00;99.90;;;;;;6215383;23;20380;-83
2022/10/07 12:02:27;;;;;;;12.88;1.98;;;18.10;99.90;;;;;;6215589;23;20027;-84
2022/10/07 12:04:53;;;;;;;11.93;1.92;;;18.10;99.90;;;;;;6215446;23;20012;-83
2022/10/07 12:07:34;;;;;;;7.13;1.45;;;18.20;99.90;;;;;;6215406;23;20019;-83
2022/10/07 12:10:03;;;;;;;12.27;1.90;;;18.10;99.90;;;;;;6215747;23;20049;-84
2022/10/07 12:12:41;;;;;;;9.65;1.67;;;18.10;99.90;;;;;;6241195;23;20020;-84
2022/10/07 12:15:33;;;;;;;9.20;1.83;;;18.10;99.90;;;;;;6241500;22;20016;-84
2022/10/07 12:18:05;;;;;;;11.15;1.85;;;18.20;99.90;;;;;;6242600;22;20016;-84
2022/10/07 12:20:45;;;;;;;11.25;1.60;;;18.20;99.90;;;;;;6242845;23;20024;-83
2022/10/07 12:23:24;;;;;;;12.20;1.75;;;18.20;99.90;;;;;;6215786;23;20020;-83
2022/10/07 12:25:54;;;;;;;13.18;1.88;;;18.10;99.90;;;;;;6240652;23;20087;-84
2022/10/07 12:28:38;;;;;;;11.93;1.90;;;18.00;99.90;;;;;;6242072;22;20016;-83
2022/10/07 12:31:15;;;;;;;11.38;1.60;;;17.90;99.90;;;;;;6241995;22;20023;-83
2022/10/07 12:34:04;;;;;;;12.48;1.63;;;17.90;99.90;;;;;;6215388;23;20454;-83
2022/10/07 12:36:30;;;;;;;13.95;1.83;;;17.80;99.90;;;;;;6242645;23;20047;-83
2022/10/07 12:38:58;;;;;;;13.50;1.98;;;17.80;99.90;;;;;;6242400;23;20087;-84
2022/10/07 12:41:34;;;;;;;13.13;1.80;;;17.70;99.90;;;;;;6245131;23;20016;-83
2022/10/07 12:44:03;;;;;;;8.60;1.50;;;17.70;99.90;;;;;;6216879;23;20441;-83
2022/10/07 12:46:37;;;;;;;9.45;1.45;;;17.70;99.90;;;;;;6243381;23;20016;-83
2022/10/07 12:49:12;;;;;;;9.40;1.42;;;17.70;99.90;;;;;;6242955;23;20012;-83
2022/10/07 12:51:39;;;;;;;8.38;1.73;;;17.60;99.90;;;;;;6244214;22;20445;-83
2022/10/07 12:54:22;;;;;;;9.63;1.65;;;17.60;99.90;;;;;;6242153;23;20104;-83
2022/10/07 12:56:48;;;;;;;13.95;2.58;;;17.50;99.90;;;;;;6242503;23;20012;-83
2022/10/07 12:59:59;;;;;;;13.45;1.90;;;17.50;99.90;;;;;;6217020;23;20368;-83
2022/10/07 13:02:52;;;;;;;8.38;1.60;;;17.40;99.90;;;;;;6191488;23;20012;-83
2022/10/07 13:05:55;;;;;;;10.23;1.60;;;17.40;99.90;;;;;;6242593;23;20589;-83
2022/10/07 13:09:04;;;;;;;9.00;1.77;;;17.30;99.90;;;;;;6242931;23;20008;-82
2022/10/07 13:12:00;;;;;;;11.40;1.85;;;17.30;99.90;;;;;;6241744;23;20228;-82
2022/10/07 13:14:42;;;;;;;7.72;1.30;;;17.40;99.90;;;;;;6242137;23;20021;-82
2022/10/07 13:17:22;;;;;;;10.20;1.80;;;17.40;99.90;;;;;;6242539;23;20456;-82
2022/10/07 13:20:10;;;;;;;9.48;1.50;;;17.50;99.90;;;;;;6242593;23;20012;-82